Time;durP1;ratioP1;P1;durP2;ratioP2;P2;SDS_P1;SDS_P2;PMS_P1;PMS_P2;Temp;Humidity;BMP_temperature;BMP_pressure;BME280_temperature;BME280_humidity;BME280_pressure;Samples;Min_cycle;Max_cycle;Signal;HPM_P1;HPM_P2
2023/06/29 00:01:03;;;;;;;4.05;2.40;;;13.40;99.90;;;;;;5039834;28;20086;-88
2023/06/29 00:03:47;;;;;;;3.25;2.78;;;13.30;99.90;;;;;;5033025;28;20044;-89
2023/06/29 00:06:17;;;;;;;3.30;2.42;;;13.30;99.90;;;;;;5046837;28;20136;-91
2023/06/29 00:08:48;;;;;;;3.92;2.47;;;13.30;99.90;;;;;;5016989;28;20502;-89
2023/06/29 00:11:14;;;;;;;2.88;2.60;;;13.30;99.90;;;;;;5028845;28;20067;-90
2023/06/29 00:13:39;;;;;;;3.38;2.60;;;13.30;99.90;;;;;;5016488;28;20458;-90
2023/06/29 00:16:05;;;;;;;3.90;2.60;;;13.20;99.90;;;;;;5065565;28;20033;-89
2023/06/29 00:18:33;;;;;;;3.58;2.20;;;13.20;99.90;;;;;;5013291;28;20029;-88
2023/06/29 00:21:01;;;;;;;3.08;2.72;;;13.20;99.90;;;;;;5039204;28;20482;-89
2023/06/29 00:23:27;;;;;;;6.95;2.58;;;13.10;99.90;;;;;;5032307;28;20168;-89
2023/06/29 00:25:56;;;;;;;3.80;2.90;;;13.10;99.90;;;;;;5052111;28;20075;-89
2023/06/29 00:28:22;;;;;;;3.55;2.60;;;13.10;99.90;;;;;;5049087;28;20037;-88
2023/06/29 00:30:47;;;;;;;3.47;2.55;;;13.10;99.90;;;;;;5032648;28;20040;-87
2023/06/29 00:33:13;;;;;;;5.10;2.60;;;13.10;99.90;;;;;;5031636;28;20101;-88
2023/06/29 00:35:39;;;;;;;2.92;2.40;;;13.00;99.90;;;;;;5032091;28;20031;-89
2023/06/29 00:38:23;;;;;;;2.90;2.58;;;12.90;99.90;;;;;;5034556;28;20130;-87
2023/06/29 00:40:49;;;;;;;2.58;2.38;;;12.90;99.90;;;;;;4999854;28;20593;-89
2023/06/29 00:43:17;;;;;;;3.63;2.40;;;12.90;99.90;;;;;;5050048;28;20032;-89
2023/06/29 00:45:43;;;;;;;6.63;3.28;;;12.80;99.90;;;;;;5048740;28;20040;-87
2023/06/29 00:48:09;;;;;;;4.22;2.70;;;12.80;99.90;;;;;;5032059;28;20048;-88
2023/06/29 00:50:35;;;;;;;3.55;2.70;;;12.80;99.90;;;;;;5048900;28;20112;-89
2023/06/29 00:53:01;;;;;;;3.67;3.10;;;12.80;99.90;;;;;;5032119;28;20037;-89
2023/06/29 00:55:27;;;;;;;4.40;2.97;;;12.70;99.90;;;;;;5048887;28;20043;-88
2023/06/29 00:57:53;;;;;;;7.38;2.80;;;12.70;99.90;;;;;;5031407;28;20722;-88
2023/06/29 01:00:19;;;;;;;3.40;2.67;;;12.70;99.90;;;;;;5029884;28;20029;-88
2023/06/29 01:02:45;;;;;;;5.18;3.03;;;12.60;99.90;;;;;;5029973;28;20091;-88
2023/06/29 01:05:13;;;;;;;4.40;2.95;;;12.60;99.90;;;;;;5034258;28;20057;-88
2023/06/29 01:07:56;;;;;;;3.38;2.80;;;12.60;99.90;;;;;;5030688;28;20031;-88
2023/06/29 01:10:25;;;;;;;3.58;3.05;;;12.60;99.90;;;;;;5048463;28;20025;-90
2023/06/29 01:12:53;;;;;;;4.00;2.75;;;12.50;99.90;;;;;;5047935;28;20672;-88
2023/06/29 01:15:21;;;;;;;3.40;3.10;;;12.50;99.90;;;;;;5048632;28;20529;-89
2023/06/29 01:17:50;;;;;;;3.65;3.05;;;12.50;99.90;;;;;;5032387;28;20045;-88
2023/06/29 01:20:16;;;;;;;3.25;2.58;;;12.50;99.90;;;;;;5012548;28;20129;-89
2023/06/29 01:22:55;;;;;;;4.57;2.58;;;12.40;99.90;;;;;;5032097;28;20033;-89
2023/06/29 01:25:22;;;;;;;2.72;2.42;;;12.40;99.90;;;;;;5032683;28;20551;-88
2023/06/29 01:27:49;;;;;;;4.32;3.00;;;12.40;99.90;;;;;;5032153;28;20033;-90
2023/06/29 01:30:14;;;;;;;4.65;2.92;;;12.30;99.90;;;;;;5032082;28;20029;-88
2023/06/29 01:32:40;;;;;;;8.35;3.08;;;12.30;99.90;;;;;;4999071;28;20407;-88
2023/06/29 01:35:08;;;;;;;3.97;2.60;;;12.30;99.90;;;;;;4998958;28;20124;-89
2023/06/29 01:37:59;;;;;;;2.92;2.72;;;12.30;99.90;;;;;;5032991;28;20098;-88
2023/06/29 01:40:27;;;;;;;3.97;2.88;;;12.30;99.90;;;;;;5048691;28;20025;-89
2023/06/29 01:42:55;;;;;;;4.25;3.10;;;12.20;99.90;;;;;;5029360;28;20088;-88
2023/06/29 01:45:22;;;;;;;4.97;2.92;;;12.10;99.90;;;;;;5050749;28;20166;-89
2023/06/29 01:47:48;;;;;;;4.13;2.97;;;12.10;99.90;;;;;;5036100;28;20033;-89
2023/06/29 01:50:16;;;;;;;4.25;2.95;;;12.10;99.90;;;;;;5052572;28;20039;-89
2023/06/29 01:52:43;;;;;;;3.08;2.70;;;12.10;99.90;;;;;;5038678;28;20072;-87
2023/06/29 01:55:10;;;;;;;4.65;3.10;;;12.10;99.90;;;;;;5035734;28;20033;-88
2023/06/29 01:57:37;;;;;;;3.85;2.97;;;12.10;99.90;;;;;;5047332;28;20033;-89
2023/06/29 02:00:03;;;;;;;3.30;2.92;;;12.10;99.90;;;;;;5052183;28;20071;-86
2023/06/29 02:02:39;;;;;;;3.30;2.85;;;12.00;99.90;;;;;;5053406;28;20574;-88
2023/06/29 02:05:06;;;;;;;4.45;2.95;;;11.90;99.90;;;;;;5020101;28;20033;-87
2023/06/29 02:07:32;;;;;;;3.75;3.10;;;11.90;99.90;;;;;;5035397;28;20033;-88
2023/06/29 02:09:57;;;;;;;3.47;3.22;;;11.90;99.90;;;;;;5035397;28;20106;-89
2023/06/29 02:12:24;;;;;;;3.80;3.22;;;11.90;99.90;;;;;;5015833;28;20033;-88
2023/06/29 02:14:50;;;;;;;3.00;2.78;;;11.90;99.90;;;;;;5052805;28;20025;-89
2023/06/29 02:17:16;;;;;;;3.10;2.90;;;11.90;99.90;;;;;;5033061;28;20084;-88
2023/06/29 02:19:42;;;;;;;4.65;3.28;;;11.90;99.90;;;;;;5002137;28;20025;-89
2023/06/29 02:22:08;;;;;;;3.38;2.95;;;11.90;99.90;;;;;;5002381;28;20037;-88
2023/06/29 02:24:34;;;;;;;4.07;3.08;;;11.80;99.90;;;;;;5051105;28;20048;-87
2023/06/29 02:27:01;;;;;;;4.65;2.80;;;11.80;99.90;;;;;;5034684;28;20056;-88
2023/06/29 02:29:27;;;;;;;3.80;3.00;;;11.80;99.90;;;;;;5051302;28;20071;-88
2023/06/29 02:31:52;;;;;;;3.40;2.92;;;11.80;99.90;;;;;;5034712;28;20033;-89
2023/06/29 02:34:20;;;;;;;4.63;3.17;;;11.70;99.90;;;;;;5034270;28;20044;-88
2023/06/29 02:36:46;;;;;;;6.10;3.22;;;11.70;99.90;;;;;;5017936;28;20029;-89
2023/06/29 02:39:14;;;;;;;6.07;3.50;;;11.70;99.90;;;;;;5002488;28;20029;-88
2023/06/29 02:41:39;;;;;;;3.60;3.30;;;11.70;99.90;;;;;;5034481;28;20418;-89
2023/06/29 02:44:05;;;;;;;5.25;3.15;;;11.70;99.90;;;;;;5052772;28;20037;-87
2023/06/29 02:46:32;;;;;;;4.40;3.72;;;11.60;99.90;;;;;;5032184;28;20032;-87
2023/06/29 02:48:58;;;;;;;3.70;3.30;;;11.60;99.90;;;;;;5051220;28;20028;-90
2023/06/29 02:51:23;;;;;;;3.78;3.00;;;11.60;99.90;;;;;;5040213;28;20041;-88
2023/06/29 02:53:52;;;;;;;4.97;2.97;;;11.60;99.90;;;;;;5044239;28;20035;-90
2023/06/29 02:56:20;;;;;;;3.55;2.92;;;11.60;99.90;;;;;;5050645;28;20037;-88
2023/06/29 02:58:45;;;;;;;3.45;2.80;;;11.60;99.90;;;;;;5037761;28;20392;-90
2023/06/29 03:01:18;;;;;;;3.85;3.22;;;11.60;99.90;;;;;;5035458;28;20437;-88
2023/06/29 03:03:47;;;;;;;3.50;3.20;;;11.60;99.90;;;;;;5016895;28;20645;-88
2023/06/29 03:06:13;;;;;;;3.90;3.45;;;11.60;99.90;;;;;;5014568;28;20033;-87
2023/06/29 03:08:39;;;;;;;3.60;3.30;;;11.50;99.90;;;;;;5040468;28;20025;-88
2023/06/29 03:11:05;;;;;;;4.22;3.50;;;11.50;99.90;;;;;;5034500;28;20037;-87
2023/06/29 03:13:30;;;;;;;7.13;3.67;;;11.50;99.90;;;;;;5016594;28;20029;-87
2023/06/29 03:15:59;;;;;;;4.05;3.65;;;11.50;99.90;;;;;;5049770;28;20032;-87
2023/06/29 03:18:25;;;;;;;3.75;3.40;;;11.40;99.90;;;;;;5032505;28;20033;-89
2023/06/29 03:20:50;;;;;;;4.95;3.30;;;11.40;99.90;;;;;;5035797;28;20376;-87
2023/06/29 03:23:16;;;;;;;4.05;3.63;;;11.40;99.90;;;;;;5032585;28;20062;-88
2023/06/29 03:25:42;;;;;;;5.22;3.78;;;11.40;99.90;;;;;;5033513;28;20611;-88
2023/06/29 03:28:08;;;;;;;3.53;3.22;;;11.40;99.90;;;;;;5019196;28;20112;-87
2023/06/29 03:30:34;;;;;;;3.92;3.33;;;11.40;99.90;;;;;;5000720;28;20032;-89
2023/06/29 03:32:59;;;;;;;3.92;3.50;;;11.40;99.90;;;;;;5032912;28;20618;-89
2023/06/29 03:35:25;;;;;;;3.78;3.47;;;11.40;99.90;;;;;;5033043;28;20044;-89
2023/06/29 03:37:51;;;;;;;3.80;3.50;;;11.40;99.90;;;;;;5032830;28;20071;-87
2023/06/29 03:40:17;;;;;;;5.10;3.90;;;11.40;99.90;;;;;;5049703;28;20036;-88
2023/06/29 03:42:43;;;;;;;3.75;3.45;;;11.40;99.90;;;;;;5000058;28;20033;-89
2023/06/29 03:45:09;;;;;;;6.43;3.83;;;11.40;99.90;;;;;;5046715;28;20041;-89
2023/06/29 03:47:34;;;;;;;5.40;3.92;;;11.50;99.90;;;;;;5028897;28;20033;-88
2023/06/29 03:50:00;;;;;;;4.97;3.90;;;11.50;99.90;;;;;;5031909;28;20132;-88
2023/06/29 03:52:26;;;;;;;3.30;2.85;;;11.50;99.90;;;;;;5047353;28;20055;-88
2023/06/29 03:54:52;;;;;;;5.97;3.00;;;11.50;99.90;;;;;;5035754;28;20395;-87
2023/06/29 03:57:18;;;;;;;4.47;3.33;;;11.50;99.90;;;;;;5049478;28;20041;-90
2023/06/29 03:59:43;;;;;;;4.32;3.30;;;11.50;99.90;;;;;;5015985;28;20021;-87
2023/06/29 04:02:09;;;;;;;3.83;3.53;;;11.60;99.90;;;;;;5000372;28;20037;-90
2023/06/29 04:04:35;;;;;;;3.38;2.75;;;11.60;99.90;;;;;;5032614;28;20040;-89
2023/06/29 04:07:01;;;;;;;4.60;2.75;;;11.70;99.90;;;;;;5007574;28;20110;-88
2023/06/29 04:09:26;;;;;;;3.97;2.72;;;11.70;99.90;;;;;;5016999;28;20045;-89
2023/06/29 04:11:52;;;;;;;3.05;2.78;;;11.70;99.90;;;;;;5031220;28;20025;-88
2023/06/29 04:14:18;;;;;;;2.95;2.65;;;11.80;99.90;;;;;;5048189;28;20029;-88
2023/06/29 04:16:44;;;;;;;3.33;3.03;;;11.80;99.90;;;;;;5049149;28;20028;-89
2023/06/29 04:19:10;;;;;;;3.80;3.40;;;11.80;99.90;;;;;;5032940;28;20021;-87
2023/06/29 04:21:35;;;;;;;3.40;3.10;;;11.80;99.90;;;;;;5032416;28;20061;-89
2023/06/29 04:24:01;;;;;;;4.70;3.03;;;11.90;99.90;;;;;;5048446;28;20032;-89
2023/06/29 04:26:27;;;;;;;3.80;2.67;;;11.90;99.90;;;;;;5030984;28;20131;-89
2023/06/29 04:29:00;;;;;;;3.58;3.05;;;11.90;99.90;;;;;;5032579;28;20442;-91
2023/06/29 04:31:28;;;;;;;4.30;3.17;;;12.00;99.90;;;;;;5031656;28;20039;-87
2023/06/29 04:33:54;;;;;;;7.15;3.28;;;12.00;99.90;;;;;;5031382;28;20037;-88
2023/06/29 04:36:21;;;;;;;4.05;3.30;;;12.10;99.90;;;;;;5031606;28;20033;-86
2023/06/29 04:38:47;;;;;;;4.15;3.10;;;12.10;99.90;;;;;;5032591;28;20033;-88
2023/06/29 04:41:13;;;;;;;3.47;3.08;;;12.20;99.90;;;;;;5015572;28;20091;-89
2023/06/29 04:43:39;;;;;;;3.47;3.10;;;12.20;99.90;;;;;;5028981;28;20030;-90
2023/06/29 04:46:05;;;;;;;4.18;2.92;;;12.30;99.90;;;;;;5049632;28;20029;-87
2023/06/29 04:48:36;;;;;;;4.43;2.88;;;12.30;99.90;;;;;;5026002;28;20029;-88
2023/06/29 04:51:05;;;;;;;3.45;3.15;;;12.40;99.90;;;;;;5032256;28;20119;-89
2023/06/29 04:53:34;;;;;;;4.75;3.20;;;12.50;99.90;;;;;;5032486;28;20635;-87
2023/06/29 04:56:01;;;;;;;2.97;2.67;;;12.60;99.90;;;;;;5029705;28;20029;-89
2023/06/29 04:58:27;;;;;;;4.25;2.85;;;12.60;99.90;;;;;;5032187;28;20511;-89
2023/06/29 05:00:56;;;;;;;3.20;2.90;;;12.70;99.90;;;;;;5048522;28;20029;-89
2023/06/29 05:03:24;;;;;;;3.20;2.90;;;12.70;99.90;;;;;;5031871;28;20056;-89
2023/06/29 05:05:50;;;;;;;4.18;2.60;;;12.80;99.90;;;;;;5048480;28;20086;-89
2023/06/29 05:08:16;;;;;;;3.00;2.70;;;12.90;99.90;;;;;;5032135;28;20393;-90
2023/06/29 05:10:42;;;;;;;4.57;2.75;;;13.00;99.90;;;;;;5050896;28;20564;-90
2023/06/29 05:13:08;;;;;;;3.63;2.67;;;13.00;99.90;;;;;;5035403;28;20041;-88
2023/06/29 05:15:34;;;;;;;3.25;2.95;;;13.10;99.90;;;;;;5023632;28;20117;-89
2023/06/29 05:17:59;;;;;;;3.95;2.92;;;13.30;99.90;;;;;;5015336;28;20403;-89
2023/06/29 05:20:25;;;;;;;3.83;3.47;;;13.30;99.90;;;;;;5034913;28;20771;-88
2023/06/29 05:22:51;;;;;;;4.90;3.47;;;13.40;99.90;;;;;;5034454;28;20033;-88
2023/06/29 05:25:17;;;;;;;3.83;3.40;;;13.40;99.90;;;;;;5051763;28;20033;-89
2023/06/29 05:27:42;;;;;;;5.65;3.50;;;13.50;99.90;;;;;;5003007;28;20033;-87
2023/06/29 05:30:09;;;;;;;4.15;3.10;;;13.80;99.90;;;;;;5035458;28;20523;-86
2023/06/29 05:32:35;;;;;;;4.72;2.70;;;14.00;99.90;;;;;;5049802;28;20394;-87
2023/06/29 05:35:01;;;;;;;3.28;2.70;;;14.30;99.90;;;;;;5053941;28;20785;-89
2023/06/29 05:37:29;;;;;;;5.05;3.70;;;14.70;99.90;;;;;;5051299;28;20059;-88
2023/06/29 05:39:56;;;;;;;7.63;2.65;;;15.10;99.90;;;;;;5038054;28;20495;-88
2023/06/29 05:42:26;;;;;;;6.03;2.53;;;15.40;99.90;;;;;;5034799;28;20478;-88
2023/06/29 05:44:53;;;;;;;2.40;2.20;;;15.80;99.90;;;;;;5052792;28;20097;-88
2023/06/29 05:47:19;;;;;;;4.65;2.65;;;16.20;99.90;;;;;;5051031;28;20408;-88
2023/06/29 05:49:45;;;;;;;4.00;2.47;;;16.60;99.90;;;;;;5043862;28;20154;-88
2023/06/29 05:52:11;;;;;;;3.22;2.40;;;16.90;99.90;;;;;;5069752;28;20479;-86
2023/06/29 05:54:38;;;;;;;4.47;2.25;;;17.10;99.90;;;;;;5042245;28;20415;-86
2023/06/29 05:57:04;;;;;;;3.47;2.65;;;17.40;99.90;;;;;;5052854;28;20037;-86
2023/06/29 05:59:30;;;;;;;3.78;2.22;;;17.80;99.90;;;;;;5037753;28;20036;-87
2023/06/29 06:01:56;;;;;;;3.22;2.08;;;18.20;99.90;;;;;;5039075;28;20398;-88
2023/06/29 06:04:25;;;;;;;5.10;2.92;;;18.80;99.70;;;;;;5038891;28;20036;-89
2023/06/29 06:06:51;;;;;;;2.97;2.38;;;19.20;99.90;;;;;;5037693;28;20082;-89
2023/06/29 06:09:17;;;;;;;2.83;1.95;;;19.60;97.30;;;;;;5052600;28;20041;-88
2023/06/29 06:11:43;;;;;;;3.63;2.42;;;20.10;96.90;;;;;;5034964;28;20087;-89
2023/06/29 06:14:09;;;;;;;2.63;1.90;;;20.40;94.20;;;;;;5050973;28;20025;-88
2023/06/29 06:16:38;;;;;;;2.38;1.77;;;20.50;92.70;;;;;;5039631;28;20037;-87
2023/06/29 06:19:03;;;;;;;5.05;2.53;;;20.70;91.30;;;;;;5036355;28;20068;-87
2023/06/29 06:21:29;;;;;;;3.03;2.15;;;20.70;91.40;;;;;;5017520;28;20119;-88
2023/06/29 06:23:55;;;;;;;2.70;2.20;;;20.90;92.10;;;;;;5047559;28;20108;-88
2023/06/29 06:26:20;;;;;;;4.78;2.90;;;21.40;91.60;;;;;;5038478;28;20408;-87
2023/06/29 06:28:46;;;;;;;2.15;1.95;;;21.20;89.80;;;;;;5014271;28;20482;-87
2023/06/29 06:31:12;;;;;;;3.13;1.90;;;21.30;89.60;;;;;;5048656;28;20056;-88
2023/06/29 06:33:39;;;;;;;2.67;2.25;;;21.10;87.80;;;;;;5011233;28;20027;-89
2023/06/29 06:36:06;;;;;;;3.45;2.30;;;20.90;87.20;;;;;;5024238;28;20048;-88
2023/06/29 06:38:32;;;;;;;4.32;2.28;;;21.00;88.90;;;;;;5058019;28;20029;-87
2023/06/29 06:40:58;;;;;;;7.60;2.33;;;21.50;87.00;;;;;;5034391;28;20076;-87
2023/06/29 06:43:23;;;;;;;4.68;2.60;;;21.30;83.30;;;;;;5043164;28;20388;-88
2023/06/29 06:45:50;;;;;;;6.43;2.30;;;21.50;84.60;;;;;;5047345;28;20032;-89
2023/06/29 06:48:16;;;;;;;2.03;1.83;;;21.40;82.50;;;;;;5021061;28;20034;-89
2023/06/29 06:50:42;;;;;;;2.53;1.70;;;21.60;83.40;;;;;;5032861;28;20407;-89
2023/06/29 06:53:08;;;;;;;1.80;1.70;;;21.90;82.60;;;;;;5037466;28;20037;-88
2023/06/29 06:55:34;;;;;;;3.03;1.98;;;22.10;83.60;;;;;;5019520;28;20025;-88
2023/06/29 06:57:59;;;;;;;2.67;1.80;;;22.50;79.70;;;;;;5033091;28;20495;-86
2023/06/29 07:00:26;;;;;;;2.15;1.95;;;23.00;78.40;;;;;;5032483;28;20029;-87
2023/06/29 07:02:52;;;;;;;2.25;1.80;;;23.10;77.30;;;;;;5052302;28;20032;-88
2023/06/29 07:05:18;;;;;;;3.08;2.17;;;23.50;80.90;;;;;;5039602;28;20020;-88
2023/06/29 07:07:46;;;;;;;3.47;2.30;;;24.00;75.70;;;;;;5006039;28;20033;-88
2023/06/29 07:10:12;;;;;;;3.20;1.88;;;24.40;76.60;;;;;;5012397;28;20418;-88
2023/06/29 07:12:38;;;;;;;3.78;1.70;;;24.70;77.60;;;;;;5053384;28;20036;-87
2023/06/29 07:15:05;;;;;;;3.55;2.42;;;25.20;71.80;;;;;;5051784;28;20044;-89
2023/06/29 07:17:31;;;;;;;2.53;1.77;;;25.10;68.40;;;;;;5036984;28;20527;-86
2023/06/29 07:19:57;;;;;;;3.85;2.30;;;25.40;71.00;;;;;;5009070;28;20116;-86
2023/06/29 07:22:23;;;;;;;3.38;1.98;;;25.30;69.40;;;;;;5016009;28;20471;-89
2023/06/29 07:24:48;;;;;;;5.07;2.25;;;25.00;67.10;;;;;;5033204;28;20032;-88
2023/06/29 07:27:14;;;;;;;3.92;1.92;;;24.40;69.00;;;;;;5052934;28;20399;-87
2023/06/29 07:29:42;;;;;;;3.80;1.83;;;24.50;69.50;;;;;;5033454;28;20132;-88
2023/06/29 07:32:09;;;;;;;7.25;2.00;;;24.90;68.50;;;;;;5052024;28;20040;-89
2023/06/29 07:34:34;;;;;;;3.33;1.83;;;24.50;70.00;;;;;;5032591;28;20033;-88
2023/06/29 07:37:00;;;;;;;2.30;1.80;;;24.70;69.60;;;;;;5036739;28;20949;-88
2023/06/29 07:39:27;;;;;;;3.85;2.00;;;24.90;67.60;;;;;;5050099;28;20033;-89
2023/06/29 07:41:53;;;;;;;3.03;1.73;;;25.20;68.30;;;;;;5016883;28;20064;-90
2023/06/29 07:44:19;;;;;;;3.78;2.03;;;25.10;65.30;;;;;;5046769;28;20115;-86
2023/06/29 07:46:46;;;;;;;2.10;1.70;;;24.80;68.90;;;;;;5061254;28;20032;-90
2023/06/29 07:49:11;;;;;;;2.55;1.80;;;24.60;66.60;;;;;;5064083;28;20027;-89
2023/06/29 07:51:37;;;;;;;2.55;1.85;;;24.50;72.40;;;;;;5036013;28;20037;-89
2023/06/29 07:54:04;;;;;;;2.45;1.77;;;24.70;73.70;;;;;;5054503;28;20036;-88
2023/06/29 07:56:31;;;;;;;3.33;1.98;;;24.80;73.80;;;;;;5033469;28;20041;-88
2023/06/29 07:58:57;;;;;;;4.93;2.15;;;25.00;68.30;;;;;;5052531;28;21046;-91
2023/06/29 08:01:23;;;;;;;2.25;2.00;;;24.70;66.30;;;;;;5035130;28;20040;-89
2023/06/29 08:03:49;;;;;;;2.80;1.75;;;24.70;69.30;;;;;;5035063;28;20120;-90
2023/06/29 08:06:15;;;;;;;2.70;1.95;;;24.80;68.70;;;;;;5036751;28;20085;-90
2023/06/29 08:08:41;;;;;;;3.80;1.80;;;25.00;67.70;;;;;;5036784;28;20082;-88
2023/06/29 08:11:11;;;;;;;1.75;1.58;;;25.30;66.60;;;;;;5032409;28;20088;-87
2023/06/29 08:13:37;;;;;;;3.83;1.85;;;25.80;66.60;;;;;;5051699;28;20036;-89
2023/06/29 08:16:03;;;;;;;2.28;2.05;;;26.20;64.20;;;;;;5036302;28;20041;-88
2023/06/29 08:18:29;;;;;;;4.13;1.55;;;26.60;59.90;;;;;;5030987;28;20033;-88
2023/06/29 08:20:55;;;;;;;3.35;1.80;;;27.30;58.70;;;;;;5020572;28;20024;-89
2023/06/29 08:23:21;;;;;;;1.65;1.40;;;27.80;55.40;;;;;;5052690;28;20026;-89
2023/06/29 08:25:48;;;;;;;2.83;1.83;;;27.90;56.20;;;;;;5033787;28;20024;-89
2023/06/29 08:28:14;;;;;;;2.22;1.27;;;27.60;54.50;;;;;;5056660;28;20227;-90
2023/06/29 08:30:39;;;;;;;2.88;1.65;;;27.90;54.50;;;;;;5037645;28;20021;-88
2023/06/29 08:33:05;;;;;;;2.42;1.77;;;27.30;53.10;;;;;;5027940;28;20037;-87
2023/06/29 08:35:31;;;;;;;1.90;1.50;;;26.90;54.40;;;;;;5032658;28;20040;-90
2023/06/29 08:37:57;;;;;;;3.53;1.65;;;26.90;58.50;;;;;;5049785;28;20149;-89
2023/06/29 08:40:23;;;;;;;1.63;1.30;;;27.20;59.90;;;;;;5033728;28;20037;-90
2023/06/29 08:42:50;;;;;;;2.35;1.27;;;27.80;52.90;;;;;;5032744;28;20025;-89
2023/06/29 08:45:16;;;;;;;3.38;1.85;;;28.30;53.30;;;;;;5030833;28;20116;-88
2023/06/29 08:47:43;;;;;;;2.65;1.30;;;28.40;53.70;;;;;;5047514;28;20029;-91
2023/06/29 08:50:10;;;;;;;2.90;1.42;;;28.20;50.20;;;;;;5033004;28;20025;-90
2023/06/29 08:52:36;;;;;;;1.42;1.30;;;28.00;52.00;;;;;;5032986;28;20039;-89
2023/06/29 08:55:03;;;;;;;1.70;1.40;;;27.80;51.80;;;;;;5029792;28;20029;-87
2023/06/29 08:57:31;;;;;;;2.17;1.60;;;27.70;55.30;;;;;;5041056;28;20410;-90
2023/06/29 08:59:59;;;;;;;3.97;1.60;;;27.10;53.10;;;;;;5040303;28;20025;-90
2023/06/29 09:02:26;;;;;;;4.15;1.85;;;27.00;53.20;;;;;;5027213;28;20112;-92
2023/06/29 09:04:52;;;;;;;4.32;1.55;;;26.80;54.90;;;;;;5034950;28;20032;-89
2023/06/29 09:07:18;;;;;;;2.28;1.50;;;26.70;56.20;;;;;;5067021;28;20107;-90
2023/06/29 09:09:44;;;;;;;4.05;1.52;;;26.70;58.90;;;;;;5037529;28;20121;-90
2023/06/29 09:12:12;;;;;;;1.95;1.33;;;26.50;55.10;;;;;;5021559;28;20033;-90
2023/06/29 09:14:43;;;;;;;5.47;1.88;;;26.60;60.50;;;;;;5049733;28;20075;-88
2023/06/29 09:17:14;;;;;;;4.97;1.83;;;26.40;54.50;;;;;;5053941;28;20101;-85
2023/06/29 09:19:48;;;;;;;2.35;1.65;;;25.90;53.30;;;;;;5049508;28;20025;-89
2023/06/29 09:22:15;;;;;;;3.47;1.52;;;25.80;52.80;;;;;;5050398;28;20052;-89
2023/06/29 09:24:41;;;;;;;2.25;1.48;;;25.80;64.10;;;;;;5034815;28;20028;-89
2023/06/29 09:27:10;;;;;;;1.98;1.30;;;25.70;60.40;;;;;;5036604;28;20058;-90
2023/06/29 09:29:39;;;;;;;2.15;1.83;;;25.70;57.90;;;;;;5035914;28;20037;-88
2023/06/29 09:32:13;;;;;;;1.75;1.42;;;25.70;56.10;;;;;;5037747;28;20037;-89
2023/06/29 09:34:47;;;;;;;1.83;1.65;;;25.60;53.50;;;;;;5049912;28;20118;-91
2023/06/29 09:37:17;;;;;;;2.10;1.70;;;25.30;53.30;;;;;;5048194;28;20395;-91
2023/06/29 09:39:59;;;;;;;2.03;1.35;;;25.30;57.80;;;;;;5048509;28;20044;-90
2023/06/29 09:42:29;;;;;;;4.07;1.70;;;25.40;63.50;;;;;;5049662;28;20021;-90
2023/06/29 09:45:03;;;;;;;5.90;1.77;;;25.50;58.20;;;;;;5048087;28;20036;-90
2023/06/29 09:47:29;;;;;;;2.83;1.73;;;25.50;59.50;;;;;;5036996;28;20538;-91
2023/06/29 09:49:55;;;;;;;2.15;1.63;;;25.40;56.60;;;;;;5035046;28;20033;-91
2023/06/29 09:52:22;;;;;;;4.22;1.70;;;25.30;53.40;;;;;;5034039;28;20071;-90
2023/06/29 09:54:51;;;;;;;4.50;1.52;;;25.30;57.30;;;;;;5040321;28;20040;-90
2023/06/29 09:57:18;;;;;;;2.88;1.40;;;25.30;57.50;;;;;;5030672;28;20116;-90
2023/06/29 09:59:44;;;;;;;2.15;1.50;;;25.30;56.40;;;;;;5018678;28;20060;-91
2023/06/29 10:02:11;;;;;;;2.88;1.83;;;25.30;60.50;;;;;;5031700;28;20597;-92
2023/06/29 10:04:40;;;;;;;1.58;1.48;;;25.20;55.10;;;;;;5051006;28;20052;-91
2023/06/29 10:07:10;;;;;;;3.55;1.70;;;25.10;55.50;;;;;;5049973;28;20362;-92
2023/06/29 10:09:39;;;;;;;3.08;1.60;;;25.00;54.30;;;;;;5045961;28;20126;-91
2023/06/29 10:12:10;;;;;;;1.60;1.40;;;24.90;55.50;;;;;;5060442;28;20039;-91
2023/06/29 10:14:43;;;;;;;3.67;1.60;;;24.90;54.80;;;;;;5055317;28;20056;-91
2023/06/29 10:17:26;;;;;;;2.72;1.73;;;24.90;54.00;;;;;;5035945;28;20671;-90
2023/06/29 10:19:57;;;;;;;2.80;1.45;;;25.00;58.40;;;;;;5035705;28;20475;-91
2023/06/29 10:22:26;;;;;;;3.25;1.80;;;25.00;54.50;;;;;;5034533;28;20116;-91
2023/06/29 10:24:58;;;;;;;4.30;1.85;;;24.90;53.90;;;;;;5034705;28;20024;-92
2023/06/29 10:27:28;;;;;;;5.13;1.58;;;24.90;56.00;;;;;;5036777;28;20040;-90
2023/06/29 10:29:54;;;;;;;1.75;1.65;;;24.90;56.10;;;;;;5034261;28;20029;-89
2023/06/29 10:32:32;;;;;;;2.50;1.33;;;24.90;56.00;;;;;;5033686;28;20093;-89
2023/06/29 10:35:11;;;;;;;2.17;1.60;;;25.00;58.90;;;;;;5055582;28;20031;-90
2023/06/29 10:37:43;;;;;;;2.45;1.67;;;25.10;58.60;;;;;;5037763;28;20040;-88
2023/06/29 10:40:14;;;;;;;2.67;1.60;;;25.10;59.70;;;;;;5050170;28;20028;-90
2023/06/29 10:42:40;;;;;;;2.17;1.77;;;25.20;56.50;;;;;;5041674;28;20029;-89
2023/06/29 10:45:26;;;;;;;3.58;1.75;;;25.20;61.60;;;;;;5034101;28;20044;-88
2023/06/29 10:47:58;;;;;;;2.83;1.80;;;25.20;56.20;;;;;;5038688;28;20037;-90
2023/06/29 10:50:41;;;;;;;3.78;1.80;;;25.10;56.30;;;;;;5050097;28;20033;-88
2023/06/29 10:53:15;;;;;;;2.03;1.67;;;25.20;61.20;;;;;;5032886;28;20025;-90
2023/06/29 10:55:49;;;;;;;3.38;1.83;;;25.30;56.30;;;;;;5033126;28;20029;-90
2023/06/29 10:58:28;;;;;;;2.17;1.75;;;25.20;56.10;;;;;;5034325;28;20124;-91
2023/06/29 11:00:55;;;;;;;2.65;1.80;;;25.30;55.50;;;;;;5033895;28;20098;-87
2023/06/29 11:03:22;;;;;;;2.08;1.70;;;25.20;55.50;;;;;;5033330;28;20012;-90
2023/06/29 11:05:53;;;;;;;2.38;1.75;;;25.10;55.40;;;;;;4993245;28;20091;-89
2023/06/29 11:08:23;;;;;;;3.67;1.80;;;25.00;58.50;;;;;;5031828;28;20083;-91
2023/06/29 11:10:50;;;;;;;2.75;1.75;;;25.00;58.50;;;;;;5032898;28;20073;-89
2023/06/29 11:13:19;;;;;;;4.10;2.00;;;25.00;56.10;;;;;;5048409;28;20025;-91
2023/06/29 11:15:51;;;;;;;2.20;1.42;;;25.00;57.90;;;;;;5032640;28;20124;-89
2023/06/29 11:18:19;;;;;;;1.48;1.38;;;25.20;59.30;;;;;;5012665;28;20037;-90
2023/06/29 11:20:44;;;;;;;5.93;2.20;;;25.40;58.30;;;;;;5032783;28;20088;-88
2023/06/29 11:23:10;;;;;;;3.17;1.70;;;25.30;54.80;;;;;;5046805;28;20044;-92
2023/06/29 11:25:36;;;;;;;1.73;1.63;;;25.30;57.40;;;;;;5030345;28;20064;-92
2023/06/29 11:28:03;;;;;;;2.13;1.83;;;25.30;55.00;;;;;;5036441;28;20029;-89
2023/06/29 11:30:29;;;;;;;2.17;1.35;;;25.30;58.00;;;;;;5045928;28;20037;-91
2023/06/29 11:32:54;;;;;;;3.63;1.55;;;25.40;61.90;;;;;;5031295;28;20039;-91
2023/06/29 11:35:21;;;;;;;2.33;1.90;;;25.70;61.80;;;;;;5030228;28;20501;-93
2023/06/29 11:37:49;;;;;;;2.13;1.70;;;25.90;61.40;;;;;;5029840;28;20028;-91
2023/06/29 11:40:20;;;;;;;4.05;1.60;;;26.20;60.50;;;;;;5029684;28;20040;-92
2023/06/29 11:42:48;;;;;;;2.53;1.65;;;26.30;61.50;;;;;;5030877;28;20079;-91
2023/06/29 11:45:15;;;;;;;3.42;1.75;;;26.50;58.40;;;;;;5047800;28;20029;-92
2023/06/29 11:47:46;;;;;;;3.00;1.50;;;26.60;57.50;;;;;;5056478;28;20029;-92
2023/06/29 11:50:12;;;;;;;1.83;1.50;;;26.80;59.30;;;;;;5033807;28;20103;-92
2023/06/29 11:52:40;;;;;;;2.83;1.65;;;27.10;59.70;;;;;;5052046;28;20100;-92
2023/06/29 11:55:08;;;;;;;2.20;1.30;;;27.10;56.20;;;;;;5037307;28;20119;-92
2023/06/29 11:57:36;;;;;;;3.45;1.65;;;27.20;51.50;;;;;;5028985;28;20713;-90
2023/06/29 12:00:06;;;;;;;3.60;1.73;;;27.30;53.30;;;;;;5034217;28;20494;-89
2023/06/29 12:02:37;;;;;;;3.75;1.50;;;27.40;53.90;;;;;;5047591;28;20065;-89
2023/06/29 12:05:04;;;;;;;1.38;1.27;;;27.40;55.20;;;;;;5032224;28;20040;-91
2023/06/29 12:07:38;;;;;;;1.80;1.70;;;27.40;52.80;;;;;;5057648;28;20033;-93
2023/06/29 12:10:19;;;;;;;3.38;1.35;;;27.40;51.60;;;;;;5053250;28;20060;-92
2023/06/29 12:12:56;;;;;;;2.17;1.63;;;27.30;52.00;;;;;;5042647;28;20025;-90
2023/06/29 12:15:27;;;;;;;4.72;1.48;;;27.50;56.10;;;;;;5044279;28;20032;-92
2023/06/29 12:18:06;;;;;;;2.60;1.52;;;27.60;56.50;;;;;;5031609;28;20109;-91
2023/06/29 12:20:38;;;;;;;2.75;1.35;;;27.70;58.60;;;;;;5028458;28;20021;-91
2023/06/29 12:23:04;;;;;;;1.65;1.38;;;27.70;53.50;;;;;;5028438;28;20562;-90
2023/06/29 12:25:31;;;;;;;2.17;1.70;;;27.90;52.50;;;;;;5044845;28;20214;-90
2023/06/29 12:27:57;;;;;;;1.63;1.52;;;28.00;51.60;;;;;;5034555;28;20036;-92
2023/06/29 12:30:23;;;;;;;1.60;1.15;;;28.10;51.20;;;;;;5044570;28;20039;-90
2023/06/29 12:32:50;;;;;;;2.00;1.30;;;28.10;53.50;;;;;;5046185;28;20523;-90
2023/06/29 12:35:17;;;;;;;3.00;1.55;;;28.20;54.10;;;;;;5047325;28;20037;-91
2023/06/29 12:37:43;;;;;;;2.65;1.60;;;28.30;49.90;;;;;;5032125;28;20029;-91
2023/06/29 12:40:09;;;;;;;1.58;1.17;;;28.60;50.00;;;;;;5033101;28;20032;-92
2023/06/29 12:42:37;;;;;;;2.17;1.60;;;29.00;51.30;;;;;;5029709;28;20109;-91
2023/06/29 12:45:04;;;;;;;1.65;1.30;;;29.40;48.70;;;;;;5049381;28;20044;-91
2023/06/29 12:47:31;;;;;;;2.20;1.90;;;29.50;48.60;;;;;;5044311;28;20666;-90
2023/06/29 12:49:57;;;;;;;2.97;1.50;;;29.70;51.10;;;;;;5027369;28;20441;-85